Time;durP1;ratioP1;P1;durP2;ratioP2;P2;SDS_P1;SDS_P2;PMS_P1;PMS_P2;Temp;Humidity;BMP_temperature;BMP_pressure;BME280_temperature;BME280_humidity;BME280_pressure;Samples;Min_cycle;Max_cycle;Signal;HPM_P1;HPM_P2
2021/01/07 00:02:23;;;;;;;15.35;7.45;;;;;;;0.44;89.86;96984.25;4990419;28;20026;-82
2021/01/07 00:04:49;;;;;;;15.23;8.65;;;;;;;0.47;89.36;96994.13;4991681;28;20046;-80
2021/01/07 00:07:14;;;;;;;16.00;8.50;;;;;;;0.41;89.20;96982.03;4991588;28;20509;-80
2021/01/07 00:09:40;;;;;;;14.65;7.50;;;;;;;0.43;89.82;96999.78;4989303;28;20014;-81
2021/01/07 00:12:05;;;;;;;14.70;8.52;;;;;;;0.39;89.64;96996.03;5008315;28;20034;-80
2021/01/07 00:14:31;;;;;;;15.65;8.75;;;;;;;0.42;90.04;96991.31;5006884;28;20049;-81
2021/01/07 00:16:56;;;;;;;13.68;7.95;;;;;;;0.48;89.56;96997.47;4974970;28;20045;-80
2021/01/07 00:19:22;;;;;;;20.27;9.85;;;;;;;0.50;89.33;96988.63;4990837;28;20153;-80
2021/01/07 00:21:48;;;;;;;15.98;9.40;;;;;;;0.60;89.22;97008.00;5009798;28;20038;-80
2021/01/07 00:24:14;;;;;;;17.67;10.05;;;;;;;0.60;89.09;97003.72;5009534;28;20025;-81
2021/01/07 00:26:40;;;;;;;15.90;9.13;;;;;;;0.58;89.36;96992.81;5009316;28;20056;-80
2021/01/07 00:29:06;;;;;;;17.35;10.15;;;;;;;0.60;89.04;96990.09;4990555;28;20552;-81
2021/01/07 00:31:34;;;;;;;17.08;9.27;;;;;;;0.67;89.32;96996.03;4990977;28;20037;-81
2021/01/07 00:34:00;;;;;;;19.50;10.38;;;;;;;0.63;88.98;96998.19;4989782;28;20036;-80
2021/01/07 00:36:26;;;;;;;19.98;10.52;;;;;;;0.60;88.71;96997.75;4991314;28;20492;-81
2021/01/07 00:38:52;;;;;;;19.35;10.27;;;;;;;0.63;88.96;96987.16;4991716;28;20037;-81
2021/01/07 00:41:19;;;;;;;19.83;10.55;;;;;;;0.70;88.90;97004.19;5009261;28;20014;-81
2021/01/07 00:43:46;;;;;;;21.40;11.73;;;;;;;0.66;89.03;96997.81;4993568;28;20045;-81
2021/01/07 00:46:12;;;;;;;19.45;10.68;;;;;;;0.59;89.26;96986.75;4999134;28;20036;-81
2021/01/07 00:48:38;;;;;;;19.55;9.68;;;;;;;0.73;89.40;97003.00;4992398;28;20397;-81
2021/01/07 00:51:06;;;;;;;20.92;10.95;;;;;;;0.67;88.71;96985.78;5009551;28;20159;-81
2021/01/07 00:53:31;;;;;;;21.73;11.18;;;;;;;0.65;88.91;96991.13;4979296;28;20503;-81
2021/01/07 00:55:57;;;;;;;20.23;10.07;;;;;;;0.66;89.46;96986.78;4995881;28;20034;-81
2021/01/07 00:58:22;;;;;;;23.88;11.52;;;;;;;0.70;89.07;96988.81;4999489;28;20030;-80
2021/01/07 01:00:48;;;;;;;22.25;11.43;;;;;;;0.75;88.86;96990.78;4992824;28;20087;-81
2021/01/07 01:03:13;;;;;;;22.02;11.38;;;;;;;0.68;88.93;96980.50;4981052;28;20065;-81
2021/01/07 01:05:42;;;;;;;21.13;10.95;;;;;;;0.66;89.29;96979.09;5002936;28;20427;-81
2021/01/07 01:08:08;;;;;;;20.60;10.88;;;;;;;0.70;89.25;96980.31;4995936;28;20357;-81
2021/01/07 01:10:34;;;;;;;24.67;13.10;;;;;;;0.66;88.95;96966.28;5013973;28;20461;-81
2021/01/07 01:13:00;;;;;;;23.33;12.55;;;;;;;0.72;89.13;96981.72;4998974;28;20030;-80
2021/01/07 01:15:25;;;;;;;22.20;11.02;;;;;;;0.75;88.73;96985.66;4980324;28;20061;-80
2021/01/07 01:17:52;;;;;;;22.98;10.80;;;;;;;0.71;89.09;96982.69;4997396;28;20056;-80
2021/01/07 01:20:18;;;;;;;25.50;13.10;;;;;;;0.69;89.25;96991.56;5011304;28;20457;-80
2021/01/07 01:22:44;;;;;;;24.92;13.07;;;;;;;0.68;89.04;96988.19;5014866;28;20576;-80
2021/01/07 01:25:11;;;;;;;24.70;12.23;;;;;;;0.65;88.96;96980.06;4976843;28;20066;-80
2021/01/07 01:27:41;;;;;;;24.65;13.48;;;;;;;0.58;89.30;96977.44;5011884;28;20512;-80
2021/01/07 01:30:07;;;;;;;25.17;11.52;;;;;;;0.60;89.35;96979.84;4992596;28;20030;-80
2021/01/07 01:32:37;;;;;;;24.23;11.70;;;;;;;0.59;89.55;96976.50;4998067;28;20058;-80
2021/01/07 01:35:04;;;;;;;26.50;13.45;;;;;;;0.69;89.32;96991.56;4992654;28;20029;-80
2021/01/07 01:37:30;;;;;;;24.35;12.20;;;;;;;0.65;89.54;96980.88;4958827;28;20125;-80
2021/01/07 01:39:56;;;;;;;25.90;11.95;;;;;;;0.66;88.90;96989.34;4974290;28;20037;-80
2021/01/07 01:42:24;;;;;;;23.48;12.27;;;;;;;0.65;89.31;96987.75;4995670;28;20454;-80
2021/01/07 01:44:51;;;;;;;26.73;12.93;;;;;;;0.71;89.53;96994.72;5009348;28;20026;-80
2021/01/07 01:47:17;;;;;;;25.77;13.00;;;;;;;0.70;89.06;96993.94;5009961;28;20026;-80
2021/01/07 01:49:43;;;;;;;27.63;12.02;;;;;;;0.67;89.40;96988.34;4993216;28;20037;-80
2021/01/07 01:52:09;;;;;;;26.70;14.93;;;;;;;0.72;89.00;96994.53;4993561;28;20048;-80
2021/01/07 01:54:35;;;;;;;26.05;13.57;;;;;;;0.70;89.06;96993.13;4977526;28;20040;-80
2021/01/07 01:57:02;;;;;;;25.98;13.00;;;;;;;0.74;88.95;96995.13;4994080;28;20465;-81
2021/01/07 01:59:29;;;;;;;28.60;13.57;;;;;;;0.69;88.93;96987.22;4971718;28;20093;-81
2021/01/07 02:02:02;;;;;;;23.67;12.07;;;;;;;0.76;88.69;96992.38;5020295;23;20016;-80
2021/01/07 02:04:28;;;;;;;25.42;12.65;;;;;;;0.79;88.84;96989.47;5046881;28;20036;-80
2021/01/07 02:06:55;;;;;;;25.45;13.20;;;;;;;0.75;89.15;96985.66;5069954;28;20028;-80
2021/01/07 02:09:21;;;;;;;26.45;14.18;;;;;;;0.74;88.71;96989.22;5048589;28;20027;-80
2021/01/07 02:11:48;;;;;;;27.17;12.73;;;;;;;0.66;89.12;96989.34;5061389;28;20040;-80
2021/01/07 02:14:13;;;;;;;27.85;13.38;;;;;;;0.73;89.09;96987.63;5068165;28;20502;-80
2021/01/07 02:16:39;;;;;;;29.75;13.35;;;;;;;0.70;88.83;96993.13;5077041;28;20025;-80
2021/01/07 02:19:05;;;;;;;27.70;14.50;;;;;;;0.69;88.62;96992.34;5040425;28;20037;-80
2021/01/07 02:21:36;;;;;;;23.65;11.90;;;;;;;0.63;89.01;96984.59;5052137;28;20055;-81
2021/01/07 02:24:02;;;;;;;24.00;13.18;;;;;;;0.70;89.13;96980.31;5037300;28;20029;-80
2021/01/07 02:26:28;;;;;;;22.60;12.75;;;;;;;0.67;88.51;96981.47;5071851;28;20044;-80
2021/01/07 02:28:57;;;;;;;25.90;14.02;;;;;;;0.73;88.59;96979.94;5080757;28;20434;-80
2021/01/07 02:31:24;;;;;;;29.42;13.80;;;;;;;0.70;88.55;96982.88;5018473;28;20159;-80
2021/01/07 02:33:50;;;;;;;26.08;12.63;;;;;;;0.68;88.65;96985.63;5046849;28;20123;-80
2021/01/07 02:36:16;;;;;;;28.27;14.30;;;;;;;0.69;88.83;96986.44;5033818;28;20112;-80
2021/01/07 02:38:42;;;;;;;28.27;13.90;;;;;;;0.66;88.71;96979.88;5053250;28;20051;-80
2021/01/07 02:41:08;;;;;;;27.75;13.68;;;;;;;0.64;88.80;96981.06;5086398;28;20130;-80
2021/01/07 02:43:33;;;;;;;23.95;12.05;;;;;;;0.62;89.29;96983.00;5037065;28;20032;-80
2021/01/07 02:45:59;;;;;;;29.38;14.00;;;;;;;0.67;88.89;96984.03;5036690;28;20029;-80
2021/01/07 02:48:25;;;;;;;25.98;13.00;;;;;;;0.65;88.50;96980.06;5053846;28;20025;-80
2021/01/07 02:50:50;;;;;;;26.67;13.55;;;;;;;0.63;88.50;96974.34;5057378;28;20343;-80
2021/01/07 02:53:16;;;;;;;25.80;12.75;;;;;;;0.63;89.09;96976.91;5053375;28;20047;-80
2021/01/07 02:55:42;;;;;;;26.08;13.13;;;;;;;0.56;89.34;96966.59;5070238;28;20028;-80
2021/01/07 02:58:08;;;;;;;23.23;11.93;;;;;;;0.59;89.14;96962.91;5071488;28;20037;-80
2021/01/07 03:00:34;;;;;;;27.23;12.88;;;;;;;0.64;89.21;96968.25;5071240;28;20471;-80
2021/01/07 03:03:00;;;;;;;26.10;13.77;;;;;;;0.64;88.54;96963.13;5082341;28;20052;-80
2021/01/07 03:05:25;;;;;;;25.95;12.63;;;;;;;0.60;88.82;96965.28;5071121;28;20047;-80
2021/01/07 03:07:51;;;;;;;27.08;13.30;;;;;;;0.64;88.93;96970.81;5020598;28;20032;-80
2021/01/07 03:10:16;;;;;;;22.85;12.80;;;;;;;0.60;88.84;96970.41;5053282;28;20555;-81
2021/01/07 03:12:42;;;;;;;27.92;14.18;;;;;;;0.63;88.87;96966.66;5053002;28;20425;-80
2021/01/07 03:15:09;;;;;;;23.73;12.77;;;;;;;0.64;88.85;96963.91;5070669;28;20040;-80
2021/01/07 03:17:34;;;;;;;27.77;14.18;;;;;;;0.61;88.54;96963.50;5019974;28;20383;-80
2021/01/07 03:20:00;;;;;;;26.02;13.85;;;;;;;0.60;88.98;96967.03;5036126;28;20098;-80
2021/01/07 03:22:26;;;;;;;25.55;12.18;;;;;;;0.54;89.15;96974.47;5035673;28;20025;-80
2021/01/07 03:24:51;;;;;;;25.38;12.82;;;;;;;0.60;88.81;96964.47;5036302;28;20086;-81
2021/01/07 03:27:17;;;;;;;27.02;12.95;;;;;;;0.65;88.28;96964.69;5036170;28;20391;-80
2021/01/07 03:29:43;;;;;;;27.48;14.45;;;;;;;0.74;88.65;96973.84;5064832;28;20027;-80
2021/01/07 03:32:09;;;;;;;27.13;13.25;;;;;;;0.65;88.55;96965.50;5051714;28;20041;-80
2021/01/07 03:34:34;;;;;;;27.27;13.07;;;;;;;0.61;88.15;96966.84;5044209;28;20021;-80
2021/01/07 03:37:00;;;;;;;27.70;12.88;;;;;;;0.56;88.60;96964.03;5031414;28;20060;-80
2021/01/07 03:39:26;;;;;;;24.75;13.27;;;;;;;0.62;88.43;96970.19;5051446;28;20430;-80
2021/01/07 03:41:51;;;;;;;27.20;13.38;;;;;;;0.62;87.97;96970.19;5049072;28;20040;-80
2021/01/07 03:44:17;;;;;;;26.45;13.50;;;;;;;0.56;87.82;96976.84;5068748;28;20032;-80
2021/01/07 03:46:42;;;;;;;25.25;12.07;;;;;;;0.52;88.58;96970.53;5050971;28;20044;-80
2021/01/07 03:49:08;;;;;;;25.65;13.50;;;;;;;0.50;88.75;96970.72;5013736;28;20411;-80
2021/01/07 03:51:34;;;;;;;23.00;11.63;;;;;;;0.52;88.35;96970.53;5067563;28;20044;-80
2021/01/07 03:54:00;;;;;;;24.13;12.75;;;;;;;0.51;87.93;96964.59;5018678;28;20024;-80
2021/01/07 03:56:25;;;;;;;24.02;12.23;;;;;;;0.45;88.09;96965.34;5052257;28;20029;-81
2021/01/07 03:58:51;;;;;;;22.23;11.10;;;;;;;0.48;88.61;96976.97;5051878;28;20095;-80
2021/01/07 04:01:17;;;;;;;27.38;13.23;;;;;;;0.43;88.35;96972.44;5052380;28;20033;-80
2021/01/07 04:03:43;;;;;;;28.80;14.23;;;;;;;0.38;88.84;96969.63;5029288;28;20044;-80
2021/01/07 04:06:09;;;;;;;26.10;13.60;;;;;;;0.36;88.84;96969.81;5051990;28;20044;-80
2021/01/07 04:08:36;;;;;;;23.85;12.35;;;;;;;0.40;89.03;96967.66;5035626;28;20483;-80
2021/01/07 04:11:02;;;;;;;24.08;11.52;;;;;;;0.33;88.90;96967.59;5052293;28;20092;-80
2021/01/07 04:13:29;;;;;;;23.95;12.35;;;;;;;0.32;89.07;96967.78;5051335;28;20028;-81
2021/01/07 04:15:54;;;;;;;26.13;13.10;;;;;;;0.32;89.08;96965.22;5035016;28;20024;-80
2021/01/07 04:18:21;;;;;;;24.75;13.05;;;;;;;0.37;88.56;96973.94;5052153;28;20082;-81
2021/01/07 04:20:47;;;;;;;26.92;13.07;;;;;;;0.41;88.91;96974.34;5035514;28;20033;-81
2021/01/07 04:23:14;;;;;;;27.45;12.35;;;;;;;0.33;88.44;96974.50;5051247;28;20060;-80
2021/01/07 04:25:39;;;;;;;24.63;11.93;;;;;;;0.32;89.15;96968.56;5069389;28;20032;-81
2021/01/07 04:28:05;;;;;;;28.60;13.93;;;;;;;0.27;88.84;96970.09;5069616;28;20040;-81
2021/01/07 04:30:31;;;;;;;25.33;12.32;;;;;;;0.30;89.25;96973.09;5069628;28;20028;-80
2021/01/07 04:32:57;;;;;;;24.02;12.27;;;;;;;0.32;88.78;96971.13;5051610;28;20078;-80
2021/01/07 04:35:23;;;;;;;26.80;13.25;;;;;;;0.32;88.91;96965.22;5051483;28;20020;-80
2021/01/07 04:37:48;;;;;;;23.77;11.77;;;;;;;0.33;88.73;96966.81;5034593;28;20071;-80
2021/01/07 04:40:14;;;;;;;22.70;10.70;;;;;;;0.35;88.94;96962.31;5034625;28;20353;-80
2021/01/07 04:42:41;;;;;;;27.98;12.95;;;;;;;0.32;88.52;96955.00;5046496;28;20059;-80
2021/01/07 04:45:07;;;;;;;25.58;12.05;;;;;;;0.26;88.51;96961.66;5044702;28;20033;-80
2021/01/07 04:47:35;;;;;;;23.92;10.90;;;;;;;0.27;88.87;96959.88;5051575;28;20029;-80
2021/01/07 04:50:01;;;;;;;24.67;11.80;;;;;;;0.28;88.71;96951.22;5051279;28;20098;-80
2021/01/07 04:52:27;;;;;;;25.33;12.60;;;;;;;0.23;88.96;96956.88;5034037;28;20028;-80
2021/01/07 04:54:53;;;;;;;26.08;13.13;;;;;;;0.28;88.23;96953.78;5034608;28;20036;-80
2021/01/07 04:57:20;;;;;;;22.20;11.30;;;;;;;0.26;88.33;96958.28;5051037;28;20040;-81
2021/01/07 04:59:46;;;;;;;22.50;11.45;;;;;;;0.31;87.91;96963.63;5031195;28;20025;-80
2021/01/07 05:02:17;;;;;;;23.77;12.52;;;;;;;0.31;87.65;96953.38;5047527;28;20060;-81
2021/01/07 05:04:51;;;;;;;22.33;11.15;;;;;;;0.26;87.54;96963.41;5069460;28;20430;-79
2021/01/07 05:07:19;;;;;;;25.98;13.20;;;;;;;0.25;87.71;96956.69;5068644;28;20035;-80
2021/01/07 05:09:46;;;;;;;25.67;11.77;;;;;;;0.29;88.26;96961.28;5033533;28;20033;-80
2021/01/07 05:12:13;;;;;;;21.77;10.65;;;;;;;0.23;88.10;96950.97;5031107;28;20120;-80
2021/01/07 05:14:46;;;;;;;23.30;10.63;;;;;;;0.26;88.06;96956.53;5031099;28;20041;-81
2021/01/07 05:17:13;;;;;;;22.17;11.07;;;;;;;0.23;87.79;96956.09;5030923;28;20447;-80
2021/01/07 05:19:39;;;;;;;23.77;11.73;;;;;;;0.18;87.56;96954.88;5065562;28;20139;-80
2021/01/07 05:22:05;;;;;;;24.60;11.32;;;;;;;0.16;88.50;96944.03;5017195;28;20024;-80
2021/01/07 05:24:34;;;;;;;24.00;12.00;;;;;;;0.13;88.35;96958.97;5051035;28;20379;-80
2021/01/07 05:27:08;;;;;;;24.17;12.02;;;;;;;0.11;87.93;96951.47;5034414;28;20104;-81
2021/01/07 05:29:37;;;;;;;26.55;12.98;;;;;;;0.10;88.15;96947.31;5050894;28;20024;-80
2021/01/07 05:32:02;;;;;;;21.80;10.90;;;;;;;0.16;87.35;96951.72;5050506;28;20036;-81
2021/01/07 05:34:29;;;;;;;26.95;12.60;;;;;;;0.15;86.84;96949.31;5034395;28;20042;-80
2021/01/07 05:36:58;;;;;;;21.42;10.32;;;;;;;0.13;86.61;96952.06;5027566;28;20032;-80
2021/01/07 05:39:32;;;;;;;23.65;10.40;;;;;;;0.11;86.45;96945.56;5050596;28;20032;-80
2021/01/07 05:42:00;;;;;;;23.58;10.32;;;;;;;0.23;86.72;96954.31;5046518;28;20056;-80
2021/01/07 05:44:25;;;;;;;21.15;10.00;;;;;;;0.21;86.77;96958.03;5051047;28;20369;-80
2021/01/07 05:46:51;;;;;;;20.83;10.23;;;;;;;0.16;86.88;96951.72;5047215;28;20051;-80
2021/01/07 05:49:33;;;;;;;20.38;9.70;;;;;;;0.11;87.78;96948.13;5064362;28;20452;-80
2021/01/07 05:52:07;;;;;;;25.50;11.88;;;;;;;0.14;87.70;96953.66;5033137;28;20093;-80
2021/01/07 05:54:33;;;;;;;25.73;11.00;;;;;;;0.14;88.09;96953.66;5051052;28;20029;-80
2021/01/07 05:57:04;;;;;;;24.30;11.80;;;;;;;0.04;88.65;96944.72;5053018;28;20141;-80
2021/01/07 05:59:32;;;;;;;24.42;11.95;;;;;;;0.09;88.02;96950.84;5054213;28;20416;-80
2021/01/07 06:02:04;;;;;;;26.00;10.85;;;;;;;0.04;88.32;96950.63;5035207;28;20206;-81
2021/01/07 06:04:35;;;;;;;25.65;11.82;;;;;;;0.07;88.31;96957.94;5037049;28;20060;-80
2021/01/07 06:07:01;;;;;;;26.98;11.73;;;;;;;0.12;87.81;96947.94;5036580;28;20040;-80
2021/01/07 06:09:29;;;;;;;27.95;12.60;;;;;;;0.15;88.04;96955.22;5036019;28;20043;-80
2021/01/07 06:11:58;;;;;;;28.75;12.88;;;;;;;0.13;87.74;96952.06;5052408;28;20036;-80
2021/01/07 06:14:25;;;;;;;25.25;11.05;;;;;;;0.15;87.83;96950.09;5053138;28;20028;-80
2021/01/07 06:16:53;;;;;;;26.60;12.75;;;;;;;0.06;88.30;96951.22;5052860;28;20459;-80
2021/01/07 06:19:29;;;;;;;28.33;12.90;;;;;;;0.05;88.32;96952.19;5053365;28;20031;-80
2021/01/07 06:21:54;;;;;;;27.08;12.00;;;;;;;0.07;88.48;96952.81;5052188;28;20032;-80
2021/01/07 06:24:25;;;;;;;29.27;13.25;;;;;;;0.10;87.71;96951.63;5052858;28;20036;-80
2021/01/07 06:26:50;;;;;;;24.88;11.60;;;;;;;0.14;88.19;96953.66;5052797;28;20033;-80
2021/01/07 06:29:16;;;;;;;28.00;13.38;;;;;;;0.10;88.13;96949.88;5047006;28;20036;-81
2021/01/07 06:31:42;;;;;;;24.25;11.13;;;;;;;0.13;87.99;96941.03;5049802;28;20029;-80
2021/01/07 06:34:10;;;;;;;27.38;13.52;;;;;;;0.16;87.90;96949.16;5036125;28;20350;-80
2021/01/07 06:36:42;;;;;;;25.42;12.00;;;;;;;0.06;88.05;96947.88;5053353;28;20543;-80
2021/01/07 06:39:08;;;;;;;25.65;10.85;;;;;;;0.06;88.21;96942.75;5054181;28;20430;-80
2021/01/07 06:41:35;;;;;;;26.17;11.95;;;;;;;0.10;87.66;96942.19;5053561;28;20463;-80
2021/01/07 06:44:05;;;;;;;28.17;11.93;;;;;;;0.03;87.96;96945.69;5052821;28;20107;-80
2021/01/07 06:46:42;;;;;;;26.25;12.93;;;;;;;0.02;87.32;96941.50;5036553;28;20028;-81
2021/01/07 06:49:22;;;;;;;25.23;11.30;;;;;;;0.07;87.48;96952.81;5053498;28;20040;-80
2021/01/07 06:51:54;;;;;;;28.17;12.45;;;;;;;0.06;87.72;96947.88;5071095;28;20075;-80
2021/01/07 06:54:21;;;;;;;24.60;12.07;;;;;;;0.03;87.59;96943.13;5036715;28;20020;-80
2021/01/07 06:56:47;;;;;;;25.08;11.05;;;;;;;-0.01;87.63;96950.38;5053446;28;20035;-80
2021/01/07 06:59:13;;;;;;;25.80;11.95;;;;;;;0.05;87.37;96944.50;5035634;28;20028;-81
2021/01/07 07:01:48;;;;;;;24.75;10.90;;;;;;;0.04;87.65;96945.50;5020234;28;20097;-80
2021/01/07 07:04:24;;;;;;;29.88;12.25;;;;;;;0.03;87.73;96936.22;5034073;28;20049;-81
2021/01/07 07:06:59;;;;;;;29.33;12.43;;;;;;;0.04;87.30;96940.38;5053142;28;20399;-80
2021/01/07 07:09:25;;;;;;;24.60;10.65;;;;;;;0.03;87.62;96938.78;5071063;28;20680;-80
2021/01/07 07:11:53;;;;;;;28.30;12.65;;;;;;;0.04;87.77;96932.69;5036560;28;20154;-80
2021/01/07 07:14:20;;;;;;;29.90;12.43;;;;;;;0.14;86.88;96938.31;5036872;28;20029;-80
2021/01/07 07:16:48;;;;;;;25.27;10.95;;;;;;;0.10;86.91;96944.75;5052853;28;20029;-80
2021/01/07 07:19:24;;;;;;;29.48;12.95;;;;;;;-0.04;87.42;96955.84;5036684;28;20111;-80
2021/01/07 07:22:00;;;;;;;29.73;12.30;;;;;;;0.04;87.17;96963.41;5052937;28;20036;-80
2021/01/07 07:24:39;;;;;;;27.40;11.20;;;;;;;0.03;87.19;96958.47;5033090;28;20028;-80
2021/01/07 07:27:10;;;;;;;31.27;14.35;;;;;;;0.02;87.67;96962.81;5036567;28;20078;-80
2021/01/07 07:29:38;;;;;;;25.55;10.88;;;;;;;0.08;87.73;96967.19;5052873;28;20111;-80
2021/01/07 07:32:25;;;;;;;25.60;12.13;;;;;;;0.04;87.20;96973.66;5052924;28;20471;-80
2021/01/07 07:34:52;;;;;;;27.23;10.98;;;;;;;0.13;87.04;96976.88;5036270;28;20052;-80
2021/01/07 07:37:23;;;;;;;28.27;12.50;;;;;;;0.07;86.97;96973.28;5052590;28;20034;-80
2021/01/07 07:39:50;;;;;;;28.90;14.70;;;;;;;0.05;87.42;96975.22;5052979;28;20047;-80
2021/01/07 07:42:17;;;;;;;26.38;11.68;;;;;;;0.06;87.38;96976.81;5036226;28;20032;-80
2021/01/07 07:44:43;;;;;;;28.40;12.23;;;;;;;0.03;87.51;96971.28;5052627;28;20025;-80
2021/01/07 07:47:09;;;;;;;23.38;10.82;;;;;;;0.04;87.68;96973.66;5052819;28;20033;-80
2021/01/07 07:49:35;;;;;;;24.48;11.73;;;;;;;0.07;87.11;96970.72;5052838;28;20039;-80
2021/01/07 07:52:01;;;;;;;29.50;12.45;;;;;;;0.09;87.65;96976.47;5019147;28;20028;-80
2021/01/07 07:54:27;;;;;;;29.15;12.90;;;;;;;0.13;86.78;96977.66;5035480;28;20059;-80
2021/01/07 07:57:00;;;;;;;27.77;12.32;;;;;;;-0.01;87.36;96979.31;5052265;28;20483;-80
2021/01/07 07:59:26;;;;;;;31.67;13.25;;;;;;;0.07;87.57;96977.59;5035984;28;20054;-79
2021/01/07 08:01:54;;;;;;;27.15;12.63;;;;;;;0.09;86.93;96981.56;5069576;28;20048;-79
2021/01/07 08:04:22;;;;;;;28.50;12.13;;;;;;;0.15;86.96;96988.50;5052568;28;20522;-79
2021/01/07 08:06:49;;;;;;;30.15;13.05;;;;;;;0.11;86.99;96989.06;5051796;28;20093;-80
2021/01/07 08:09:17;;;;;;;28.65;11.98;;;;;;;0.20;87.16;96993.09;5052227;28;20115;-80
2021/01/07 08:11:53;;;;;;;26.58;11.63;;;;;;;0.14;87.11;96994.63;5051660;28;20449;-80
2021/01/07 08:14:23;;;;;;;31.05;13.25;;;;;;;0.13;86.75;96994.81;5070054;28;20043;-80
2021/01/07 08:16:59;;;;;;;28.98;12.70;;;;;;;0.11;87.27;96997.53;5018661;28;20067;-80
2021/01/07 08:19:34;;;;;;;30.77;12.02;;;;;;;0.21;86.80;97002.38;5051591;28;20029;-80
2021/01/07 08:22:01;;;;;;;33.88;13.02;;;;;;;0.25;86.77;97003.56;5051855;28;20041;-80
2021/01/07 08:24:27;;;;;;;27.42;11.18;;;;;;;0.28;86.71;97008.34;5069496;28;20082;-80
2021/01/07 08:27:03;;;;;;;26.67;11.98;;;;;;;0.17;86.92;97001.94;5052198;28;20067;-80
2021/01/07 08:29:33;;;;;;;26.67;12.52;;;;;;;0.24;86.49;96999.44;5070030;28;20111;-80
2021/01/07 08:32:00;;;;;;;25.42;11.77;;;;;;;0.25;86.71;97015.59;5034450;28;20056;-80
2021/01/07 08:34:28;;;;;;;30.38;12.82;;;;;;;0.22;86.45;97011.63;5029362;28;20025;-79
2021/01/07 08:36:54;;;;;;;30.95;12.23;;;;;;;0.28;86.52;97005.78;5048426;28;20576;-80
2021/01/07 08:39:20;;;;;;;28.30;11.63;;;;;;;0.33;86.37;97012.91;5034899;28;20036;-80
2021/01/07 08:41:46;;;;;;;27.42;11.95;;;;;;;0.19;86.58;97017.13;5018272;28;20116;-80
2021/01/07 08:44:12;;;;;;;27.70;12.88;;;;;;;0.18;86.53;97021.44;5012768;28;20094;-80
2021/01/07 08:46:42;;;;;;;27.83;12.73;;;;;;;0.09;87.14;97014.06;5048410;28;20275;-80
2021/01/07 08:49:18;;;;;;;29.35;12.80;;;;;;;0.12;87.11;97017.06;5042550;28;20032;-80
2021/01/07 08:51:45;;;;;;;32.05;13.68;;;;;;;0.17;87.26;97024.16;5026707;28;20096;-80
2021/01/07 08:54:18;;;;;;;28.58;12.13;;;;;;;0.15;86.69;97016.66;5047170;28;20020;-80
2021/01/07 08:56:46;;;;;;;29.23;12.65;;;;;;;0.19;86.51;97014.56;5032605;28;20699;-80
2021/01/07 08:59:30;;;;;;;31.58;13.23;;;;;;;0.14;87.00;97025.34;5043725;28;20020;-80
2021/01/07 09:01:56;;;;;;;25.77;11.48;;;;;;;0.23;86.59;97023.47;5031723;28;20028;-80
2021/01/07 09:04:27;;;;;;;28.98;13.52;;;;;;;0.22;86.99;97023.63;5029101;28;20060;-80
2021/01/07 09:07:14;;;;;;;31.65;13.60;;;;;;;0.13;87.28;97022.97;5048689;28;20458;-80
2021/01/07 09:09:50;;;;;;;33.00;13.45;;;;;;;0.17;86.81;97014.75;5067715;28;20087;-80
2021/01/07 09:12:29;;;;;;;32.95;13.52;;;;;;;0.13;86.28;97023.75;5045725;28;20486;-80
2021/01/07 09:15:05;;;;;;;32.03;13.07;;;;;;;0.23;86.43;97018.34;5026038;28;20040;-80
2021/01/07 09:17:57;;;;;;;33.67;14.40;;;;;;;0.20;86.28;97023.03;5048319;28;20491;-80
2021/01/07 09:20:29;;;;;;;31.85;13.50;;;;;;;0.17;86.57;97019.88;5043032;28;20028;-79
2021/01/07 09:23:05;;;;;;;27.58;12.95;;;;;;;0.22;86.99;97021.06;5045254;28;20185;-80
2021/01/07 09:25:31;;;;;;;33.60;13.00;;;;;;;0.25;86.41;97015.59;5031145;28;20113;-80
2021/01/07 09:27:58;;;;;;;32.50;14.73;;;;;;;0.25;86.70;97013.03;5049128;28;20029;-80
2021/01/07 09:30:25;;;;;;;28.95;13.55;;;;;;;0.23;86.63;97012.44;5030906;28;20021;-80
2021/01/07 09:32:51;;;;;;;29.58;13.30;;;;;;;0.25;86.93;97018.94;5070122;28;20031;-80
2021/01/07 09:35:17;;;;;;;30.08;13.63;;;;;;;0.33;86.43;97007.81;5036454;28;20021;-80
2021/01/07 09:37:43;;;;;;;30.40;13.52;;;;;;;0.35;86.67;97018.66;5070811;28;20074;-79
2021/01/07 09:40:10;;;;;;;32.30;13.95;;;;;;;0.48;86.28;97016.22;5047235;28;20128;-80
2021/01/07 09:42:36;;;;;;;29.35;14.00;;;;;;;0.38;86.05;97015.72;5030622;28;20502;-79
2021/01/07 09:45:03;;;;;;;31.23;14.38;;;;;;;0.33;86.57;97021.38;5019433;28;20075;-80
2021/01/07 09:47:29;;;;;;;30.73;13.65;;;;;;;0.29;85.86;97011.69;5048438;28;20664;-80
2021/01/07 09:49:56;;;;;;;29.80;12.70;;;;;;;0.31;85.35;97009.72;5035990;28;20054;-80
2021/01/07 09:52:22;;;;;;;28.88;12.88;;;;;;;0.27;85.65;97009.31;5049771;28;20459;-80
2021/01/07 09:54:48;;;;;;;30.98;14.02;;;;;;;0.30;86.61;97013.28;5052657;28;20027;-79
2021/01/07 09:57:14;;;;;;;32.10;13.30;;;;;;;0.33;85.04;97005.25;5050814;28;20033;-79
2021/01/07 09:59:40;;;;;;;26.70;12.45;;;;;;;0.39;85.16;97012.16;5053121;28;20028;-79
2021/01/07 10:02:10;;;;;;;27.83;13.90;;;;;;;0.30;85.34;97013.28;5017291;28;20538;-79
2021/01/07 10:04:37;;;;;;;25.17;12.27;;;;;;;0.41;85.17;97014.56;5051631;28;20116;-80
2021/01/07 10:07:04;;;;;;;29.63;14.10;;;;;;;0.27;86.18;97011.88;5051737;28;20263;-80
2021/01/07 10:09:30;;;;;;;27.00;12.52;;;;;;;0.40;85.78;97016.34;5032831;28;20032;-79
2021/01/07 10:11:58;;;;;;;27.30;12.32;;;;;;;0.32;85.36;97009.53;5048262;28;20434;-80
2021/01/07 10:14:28;;;;;;;28.05;12.75;;;;;;;0.29;86.06;97006.56;5051475;28;20029;-80
2021/01/07 10:17:01;;;;;;;25.38;12.90;;;;;;;0.36;85.21;97000.53;5031076;28;20873;-79
2021/01/07 10:19:29;;;;;;;27.83;11.82;;;;;;;0.42;84.68;96993.88;5050061;28;20029;-80
2021/01/07 10:22:04;;;;;;;25.27;11.60;;;;;;;0.44;85.09;97004.72;5052167;28;20029;-80
2021/01/07 10:24:32;;;;;;;25.48;12.27;;;;;;;0.41;85.15;96997.41;5045465;28;20119;-80
2021/01/07 10:27:01;;;;;;;28.90;13.30;;;;;;;0.43;85.36;96997.22;5052117;28;20032;-80
2021/01/07 10:29:31;;;;;;;27.77;14.07;;;;;;;0.57;85.22;96991.25;5019073;28;20024;-80
2021/01/07 10:31:59;;;;;;;28.67;12.32;;;;;;;0.49;84.95;96994.72;5051811;28;20040;-80
2021/01/07 10:34:25;;;;;;;26.48;12.40;;;;;;;0.55;85.11;96985.53;5017100;28;20029;-80
2021/01/07 10:36:51;;;;;;;25.73;12.20;;;;;;;0.54;85.22;96983.94;5034882;28;20062;-80
2021/01/07 10:39:20;;;;;;;27.05;12.15;;;;;;;0.58;84.36;96985.13;5050017;28;20360;-80
2021/01/07 10:41:49;;;;;;;27.08;11.88;;;;;;;0.61;84.45;96984.00;5044599;28;20029;-80
2021/01/07 10:44:14;;;;;;;28.50;11.90;;;;;;;0.54;84.87;96973.69;5032917;28;20056;-80
2021/01/07 10:46:43;;;;;;;27.25;13.02;;;;;;;0.58;85.05;96971.53;5051547;28;20028;-80
2021/01/07 10:49:11;;;;;;;24.00;11.90;;;;;;;0.63;84.76;96967.44;5070128;28;20505;-80
2021/01/07 10:51:50;;;;;;;25.85;11.63;;;;;;;0.63;83.81;96966.66;5052149;28;20473;-80
2021/01/07 10:54:39;;;;;;;22.42;11.07;;;;;;;0.66;83.85;96967.06;5045763;28;20028;-80
2021/01/07 10:57:34;;;;;;;24.52;10.57;;;;;;;0.57;83.90;96965.63;5038095;28;20517;-80
2021/01/07 11:00:18;;;;;;;21.00;9.85;;;;;;;0.69;83.99;96976.19;5059834;28;20024;-80
2021/01/07 11:03:00;;;;;;;24.90;11.18;;;;;;;0.79;83.73;96968.97;5024577;28;20053;-80
2021/01/07 11:05:27;;;;;;;25.10;11.05;;;;;;;0.80;83.58;96967.19;5034597;28;20029;-80
2021/01/07 11:08:07;;;;;;;23.08;12.15;;;;;;;0.76;83.86;96961.63;5049242;28;20206;-80
2021/01/07 11:10:35;;;;;;;23.65;11.98;;;;;;;0.74;83.70;96963.59;5047603;28;20021;-80
2021/01/07 11:13:07;;;;;;;21.33;10.73;;;;;;;0.71;83.55;96956.28;5068143;28;20040;-80
2021/01/07 11:15:33;;;;;;;22.95;10.68;;;;;;;0.82;83.44;96955.75;5017470;28;20039;-80
2021/01/07 11:18:06;;;;;;;21.45;10.32;;;;;;;0.73;83.33;96954.31;5044464;28;20497;-80
2021/01/07 11:20:33;;;;;;;22.80;10.68;;;;;;;0.78;82.93;96951.97;5051142;28;20027;-80
2021/01/07 11:22:59;;;;;;;23.90;11.68;;;;;;;0.89;83.54;96951.47;5033306;28;20065;-81
2021/01/07 11:25:25;;;;;;;21.23;10.20;;;;;;;0.86;83.58;96948.50;5049631;28;20111;-80
2021/01/07 11:27:52;;;;;;;22.42;10.63;;;;;;;0.95;83.07;96939.66;5017186;28;20505;-81
2021/01/07 11:30:18;;;;;;;25.08;10.80;;;;;;;0.97;83.65;96942.03;5010871;28;20028;-81
2021/01/07 11:32:45;;;;;;;23.00;10.50;;;;;;;1.00;83.33;96937.34;5066935;28;20052;-81